Observation data for Levelland on 02/11/2018      Previous  Date  Next       Current Mesonet Observations  Soil Data  Daily Summary Page  Observations in Plain Language
KLD1 110600Z 02015G20KT M07/M13 A2998 RMK A01 T10671132  RH  061%=      5-min Rain = 0
KLD1 110605Z 03017KT M07/M13 A2998 RMK A01 T10691132  RH  061%=      5-min Rain = 0
KLD1 110610Z 03017G22KT M07/M13 A2998 RMK A01 T10691132  RH  062%=      5-min Rain = 0
KLD1 110615Z 03015KT M07/M13 A2999 RMK A01 T10691132  RH  062%=      5-min Rain = 0
KLD1 110620Z 03013KT M07/M13 A2999 RMK A01 T10701132  RH  062%=      5-min Rain = 0
KLD1 110625Z 03011G16KT M07/M13 A2999 RMK A01 T10701132  RH  062%=      5-min Rain = 0
KLD1 110630Z 03012KT M07/M13 A2999 RMK A01 T10701132  RH  062%=      5-min Rain = 0
KLD1 110635Z 03012KT M07/M13 A2999 RMK A01 T10701132  RH  062%=      5-min Rain = 0
KLD1 110640Z 02014KT M07/M13 A30 RMK A01 T10711131  RH  063%=      5-min Rain = 0
KLD1 110645Z 02013KT M07/M13 A30 RMK A01 T10721132  RH  063%=      5-min Rain = 0
KLD1 110650Z 02013KT M07/M13 A30 RMK A01 T10731132  RH  063%=      5-min Rain = 0
KLD1 110655Z 02013KT M07/M13 A30 RMK A01 T10741132  RH  064%=      5-min Rain = 0
KLD1 110700Z 03014G19KT M07/M13 A2999 RMK A01 T10741133  RH  064%=      5-min Rain = 0
KLD1 110705Z 03013KT M08/M13 A2999 RMK A01 T10751134  RH  064%=      5-min Rain = 0
KLD1 110710Z 02012G17KT M08/M13 A30 RMK A01 T10761134  RH  064%=      5-min Rain = 0
KLD1 110715Z 02013KT M08/M13 A30 RMK A01 T10771134  RH  064%=      5-min Rain = 0
KLD1 110720Z 02011G16KT M08/M13 A30 RMK A01 T10771134  RH  065%=      5-min Rain = 0
KLD1 110725Z 02008KT M08/M14 A30 RMK A01 T10781135  RH  065%=      5-min Rain = 0
KLD1 110730Z 02010G15KT M08/M14 A30 RMK A01 T10791135  RH  065%=      5-min Rain = 0
KLD1 110735Z 02012KT M08/M13 A30 RMK A01 T10791134  RH  065%=      5-min Rain = 0
KLD1 110740Z 02012KT M08/M13 A3001 RMK A01 T10791134  RH  065%=      5-min Rain = 0
KLD1 110745Z 02011KT M08/M14 A3001 RMK A01 T10791135  RH  065%=      5-min Rain = 0
KLD1 110750Z 01012KT M08/M14 A3001 RMK A01 T10801135  RH  065%=      5-min Rain = 0
KLD1 110755Z 01013G18KT M08/M14 A3002 RMK A01 T10801136  RH  065%=      5-min Rain = 0
KLD1 110800Z 01012KT M08/M14 A3002 RMK A01 T10801137  RH  064%=      5-min Rain = 0
KLD1 110805Z 01012KT M08/M14 A3002 RMK A01 T10811138  RH  064%=      5-min Rain = 0
KLD1 110810Z 01012KT M08/M14 A3002 RMK A01 T10821138  RH  065%=      5-min Rain = 0
KLD1 110815Z 01013G18KT M08/M14 A3002 RMK A01 T10821138  RH  065%=      5-min Rain = 0
KLD1 110820Z 01015KT M08/M14 A3002 RMK A01 T10821140  RH  064%=      5-min Rain = 0
KLD1 110825Z 01015KT M08/M14 A3002 RMK A01 T10831140  RH  064%=      5-min Rain = 0
KLD1 110830Z 02014KT M08/M14 A3003 RMK A01 T10841141  RH  064%=      5-min Rain = 0
KLD1 110835Z 01012KT M09/M14 A3003 RMK A01 T10851141  RH  065%=      5-min Rain = 0
KLD1 110840Z 01014KT M09/M14 A3004 RMK A01 T10851141  RH  065%=      5-min Rain = 0
KLD1 110845Z 01013KT M09/M14 A3004 RMK A01 T10861141  RH  065%=      5-min Rain = 0
KLD1 110850Z 01014G20KT M09/M14 A3003 RMK A01 T10871141  RH  065%=      5-min Rain = 0
KLD1 110855Z 01015KT M09/M14 A3003 RMK A01 T10871141  RH  066%=      5-min Rain = 0
KLD1 110900Z 01013KT M09/M14 A3004 RMK A01 T10881142  RH  066%=      5-min Rain = 0
KLD1 110905Z 01012G17KT M09/M14 A3003 RMK A01 T10881142  RH  066%=      5-min Rain = 0
KLD1 110910Z 01010KT M09/M14 A3003 RMK A01 T10901143  RH  066%=      5-min Rain = 0
KLD1 110915Z 01013KT M09/M14 A3004 RMK A01 T10901142  RH  067%=      5-min Rain = 0
KLD1 110920Z 01012KT M09/M14 A3003 RMK A01 T10911143  RH  067%=      5-min Rain = 0
KLD1 110925Z 01011KT M09/M14 A3004 RMK A01 T10911143  RH  067%=      5-min Rain = 0
KLD1 110930Z 01010KT M09/M14 A3004 RMK A01 T10921143  RH  067%=      5-min Rain = 0
KLD1 110935Z 01009KT M09/M14 A3004 RMK A01 T10931143  RH  068%=      5-min Rain = 0
KLD1 110940Z 01010KT M09/M14 A3004 RMK A01 T10931144  RH  068%=      5-min Rain = 0
KLD1 110945Z 01011KT M09/M14 A3004 RMK A01 T10931144  RH  068%=      5-min Rain = 0
KLD1 110950Z 01010KT M09/M14 A3004 RMK A01 T10941144  RH  068%=      5-min Rain = 0
KLD1 110955Z 01010KT M09/M15 A3004 RMK A01 T10941145  RH  068%=      5-min Rain = 0
KLD1 111000Z 01009KT M09/M15 A3005 RMK A01 T10941145  RH  068%=      5-min Rain = 0
KLD1 111005Z 00011KT M09/M15 A3004 RMK A01 T10941145  RH  068%=      5-min Rain = 0
KLD1 111010Z 00010KT M09/M15 A3004 RMK A01 T10941145  RH  068%=      5-min Rain = 0
KLD1 111015Z 00010KT M09/M14 A3005 RMK A01 T10941144  RH  068%=      5-min Rain = 0
KLD1 111020Z 00011KT M09/M14 A3005 RMK A01 T10931144  RH  068%=      5-min Rain = 0
KLD1 111025Z 00011KT M09/M14 A3005 RMK A01 T10931144  RH  067%=      5-min Rain = 0
KLD1 111030Z 00010KT M09/M14 A3006 RMK A01 T10921144  RH  067%=      5-min Rain = 0
KLD1 111035Z 00011KT M09/M14 A3006 RMK A01 T10921143  RH  067%=      5-min Rain = 0
KLD1 111040Z 00011KT M09/M14 A3006 RMK A01 T10911143  RH  067%=      5-min Rain = 0
KLD1 111045Z 00010KT M09/M14 A3006 RMK A01 T10901143  RH  066%=      5-min Rain = 0
KLD1 111050Z 00011KT M09/M14 A3006 RMK A01 T10901143  RH  066%=      5-min Rain = 0
KLD1 111055Z 36011KT M09/M14 A3006 RMK A01 T10901143  RH  066%=      5-min Rain = 0
KLD1 111100Z 36012KT M09/M14 A3007 RMK A01 T10891143  RH  066%=      5-min Rain = 0
KLD1 111105Z 00012KT M09/M14 A3007 RMK A01 T10891143  RH  066%=      5-min Rain = 0
KLD1 111110Z 00010G15KT M09/M14 A3007 RMK A01 T10891143  RH  066%=      5-min Rain = 0
KLD1 111115Z 00012KT M09/M14 A3007 RMK A01 T10881143  RH  066%=      5-min Rain = 0
KLD1 111120Z 36013KT M09/M14 A3007 RMK A01 T10881143  RH  066%=      5-min Rain = 0
KLD1 111125Z 00011KT M09/M14 A3007 RMK A01 T10881143  RH  065%=      5-min Rain = 0
KLD1 111130Z 00011KT M09/M14 A3007 RMK A01 T10881143  RH  065%=      5-min Rain = 0
KLD1 111135Z 36013KT M09/M14 A3007 RMK A01 T10871143  RH  065%=      5-min Rain = 0
KLD1 111140Z 36013KT M09/M14 A3007 RMK A01 T10861143  RH  065%=      5-min Rain = 0
KLD1 111145Z 35012KT M09/M14 A3007 RMK A01 T10851143  RH  064%=      5-min Rain = 0
KLD1 111150Z 35012KT M09/M14 A3008 RMK A01 T10851143  RH  064%=      5-min Rain = 0
KLD1 111155Z 35012KT M09/M14 A3009 RMK A01 T10851142  RH  064%=      5-min Rain = 0
KLD1 111200Z 36009KT M09/M14 A3009 RMK A01 T10851142  RH  064%=      5-min Rain = 0
KLD1 111205Z 35010KT M08/M14 A3009 RMK A01 T10841142  RH  064%=      5-min Rain = 0
KLD1 111210Z 35007KT M09/M14 A301 RMK A01 T10851143  RH  064%=      5-min Rain = 0
KLD1 111215Z 35009KT M08/M14 A301 RMK A01 T10841143  RH  064%=      5-min Rain = 0
KLD1 111220Z 35010KT M08/M14 A301 RMK A01 T10831142  RH  063%=      5-min Rain = 0
KLD1 111225Z 35011KT M08/M14 A301 RMK A01 T10821142  RH  063%=      5-min Rain = 0
KLD1 111230Z 35009KT M08/M14 A301 RMK A01 T10811142  RH  063%=      5-min Rain = 0
KLD1 111235Z 34009KT M08/M14 A3011 RMK A01 T10801141  RH  062%=      5-min Rain = 0
KLD1 111240Z 34008KT M08/M14 A3011 RMK A01 T10801141  RH  062%=      5-min Rain = 0
KLD1 111245Z 33009KT M08/M14 A3012 RMK A01 T10791141  RH  062%=      5-min Rain = 0
KLD1 111250Z 34007KT M08/M14 A3012 RMK A01 T10791141  RH  062%=      5-min Rain = 0
KLD1 111255Z 34008KT M08/M14 A3012 RMK A01 T10791141  RH  062%=      5-min Rain = 0
KLD1 111300Z 35007KT M08/M14 A3012 RMK A01 T10791141  RH  062%=      5-min Rain = 0
KLD1 111305Z 35007KT M08/M14 A3012 RMK A01 T10781140  RH  062%=      5-min Rain = 0
KLD1 111310Z 35007KT M08/M14 A3013 RMK A01 T10771140  RH  062%=      5-min Rain = 0
KLD1 111315Z 34007KT M08/M14 A3013 RMK A01 T10761139  RH  061%=      5-min Rain = 0
KLD1 111320Z 34007KT M08/M14 A3014 RMK A01 T10761139  RH  061%=      5-min Rain = 0
KLD1 111325Z 33005KT M08/M14 A3014 RMK A01 T10751139  RH  061%=      5-min Rain = 0
KLD1 111330Z 35007KT M08/M14 A3014 RMK A01 T10751139  RH  061%=      5-min Rain = 0
KLD1 111335Z 34007KT M07/M14 A3015 RMK A01 T10741138  RH  061%=      5-min Rain = 0
KLD1 111340Z 33006KT M07/M14 A3016 RMK A01 T10731138  RH  061%=      5-min Rain = 0
KLD1 111345Z 34007KT M07/M14 A3016 RMK A01 T10731138  RH  061%=      5-min Rain = 0
KLD1 111350Z 34007KT M07/M14 A3016 RMK A01 T10731137  RH  061%=      5-min Rain = 0
KLD1 111355Z 34006KT M07/M14 A3016 RMK A01 T10721137  RH  061%=      5-min Rain = 0
KLD1 111400Z 34007KT M07/M14 A3017 RMK A01 T10701136  RH  060%=      5-min Rain = 0
KLD1 111405Z 35008KT M07/M14 A3017 RMK A01 T10671135  RH  060%=      5-min Rain = 0
KLD1 111410Z 35008KT M07/M13 A3017 RMK A01 T10661134  RH  059%=      5-min Rain = 0
KLD1 111415Z 35009KT M07/M13 A3017 RMK A01 T10651133  RH  059%=      5-min Rain = 0
KLD1 111420Z 36008KT M06/M13 A3017 RMK A01 T10641133  RH  059%=      5-min Rain = 0
KLD1 111425Z 35007KT M06/M13 A3017 RMK A01 T10631132  RH  059%=      5-min Rain = 0
KLD1 111430Z 34008KT M06/M13 A3017 RMK A01 T10631132  RH  059%=      5-min Rain = 0
KLD1 111435Z 34009KT M06/M13 A3018 RMK A01 T10621132  RH  059%=      5-min Rain = 0
KLD1 111440Z 34009KT M06/M13 A3019 RMK A01 T10621132  RH  059%=      5-min Rain = 0
KLD1 111445Z 35009KT M06/M13 A3019 RMK A01 T10611131  RH  059%=      5-min Rain = 0
KLD1 111450Z 36010KT M06/M13 A3018 RMK A01 T10601130  RH  058%=      5-min Rain = 0
KLD1 111455Z 35009KT M06/M13 A3018 RMK A01 T10581130  RH  058%=      5-min Rain = 0
KLD1 111500Z 34010KT M06/M13 A3019 RMK A01 T10581129  RH  058%=      5-min Rain = 0
KLD1 111505Z 35010KT M06/M13 A302 RMK A01 T10571128  RH  058%=      5-min Rain = 0
KLD1 111510Z 34009KT M06/M13 A302 RMK A01 T10561128  RH  058%=      5-min Rain = 0
KLD1 111515Z 34009KT M05/M13 A302 RMK A01 T10541128  RH  057%=      5-min Rain = 0
KLD1 111520Z 33009KT M05/M13 A302 RMK A01 T10541128  RH  057%=      5-min Rain = 0
KLD1 111525Z 34009KT M05/M13 A302 RMK A01 T10531128  RH  057%=      5-min Rain = 0
KLD1 111530Z 35010KT M05/M13 A302 RMK A01 T10511127  RH  056%=      5-min Rain = 0
KLD1 111535Z 34011KT M05/M13 A302 RMK A01 T10511127  RH  056%=      5-min Rain = 0
KLD1 111540Z 34009KT M05/M13 A3019 RMK A01 T10511127  RH  056%=      5-min Rain = 0
KLD1 111545Z 34009KT M05/M13 A302 RMK A01 T10491126  RH  056%=      5-min Rain = 0
KLD1 111550Z 35009KT M05/M13 A302 RMK A01 T10481126  RH  055%=      5-min Rain = 0
KLD1 111555Z 35008KT M05/M13 A302 RMK A01 T10461125  RH  055%=      5-min Rain = 0
KLD1 111600Z 34009KT M04/M12 A302 RMK A01 T10441123  RH  055%=      5-min Rain = 0
KLD1 111605Z 35010KT M04/M12 A3021 RMK A01 T10401121  RH  054%=      5-min Rain = 0
KLD1 111610Z 35009KT M03/M12 A3021 RMK A01 T10341120  RH  052%=      5-min Rain = 0
KLD1 111615Z 35008KT M04/M12 A3021 RMK A01 T10361121  RH  052%=      5-min Rain = 0
KLD1 111620Z 35009KT M03/M12 A3021 RMK A01 T10341120  RH  052%=      5-min Rain = 0
KLD1 111625Z 35009G14KT M03/M12 A3022 RMK A01 T10331120  RH  052%=      5-min Rain = 0
KLD1 111630Z 35009KT M03/M12 A3021 RMK A01 T10281119  RH  050%=      5-min Rain = 0
KLD1 111635Z 34010KT M03/M12 A3021 RMK A01 T10261119  RH  049%=      5-min Rain = 0
KLD1 111640Z 35010KT M02/M12 A3021 RMK A01 T10201118  RH  048%=      5-min Rain = 0
KLD1 111645Z 00013KT M02/M12 A3021 RMK A01 T10201121  RH  047%=      5-min Rain = 0
KLD1 111650Z 36012KT M02/M12 A3021 RMK A01 T10221121  RH  047%=      5-min Rain = 0
KLD1 111655Z 35012KT M02/M12 A3021 RMK A01 T10241122  RH  048%=      5-min Rain = 0
KLD1 111700Z 35012KT M03/M12 A3022 RMK A01 T10251122  RH  048%=      5-min Rain = 0
KLD1 111705Z 35011KT M03/M12 A3021 RMK A01 T10271121  RH  049%=      5-min Rain = 0
KLD1 111710Z 35009KT M02/M12 A3022 RMK A01 T10241119  RH  049%=      5-min Rain = 0
KLD1 111715Z 01009KT M02/M12 A3021 RMK A01 T10191118  RH  047%=      5-min Rain = 0
KLD1 111720Z 36008KT M02/M12 A3021 RMK A01 T10181119  RH  047%=      5-min Rain = 0
KLD1 111725Z 35010KT M01/M12 A3022 RMK A01 T10101116  RH  045%=      5-min Rain = 0
KLD1 111730Z 35010G15KT M01/M12 A3021 RMK A01 T10051117  RH  043%=      5-min Rain = 0
KLD1 111735Z 35009KT M01/M12 A3021 RMK A01 T10071118  RH  043%=      5-min Rain = 0
KLD1 111740Z 35010KT M00/M12 A3021 RMK A01 T10041118  RH  042%=      5-min Rain = 0
KLD1 111745Z 36011KT M00/M12 A3021 RMK A01 T10041120  RH  042%=      5-min Rain = 0
KLD1 111750Z 00010KT M01/M12 A3021 RMK A01 T10071119  RH  043%=      5-min Rain = 0
KLD1 111755Z 34010KT M00/M12 A3021 RMK A01 T10031117  RH  042%=      5-min Rain = 0
KLD1 111800Z 35009G14KT M00/M12 A3021 RMK A01 T10011116  RH  042%=      5-min Rain = 0
KLD1 111805Z 34009G14KT 00/M12 A302 RMK A01 T00021117  RH  041%=      5-min Rain = 0
KLD1 111810Z 34007KT 00/M12 A302 RMK A01 T00041117  RH  040%=      5-min Rain = 0
KLD1 111815Z 33008KT 00/M12 A302 RMK A01 T00031116  RH  041%=      5-min Rain = 0
KLD1 111820Z 34009G16KT 01/M12 A302 RMK A01 T00081115  RH  040%=      5-min Rain = 0
KLD1 111825Z 34008G13KT 01/M12 A302 RMK A01 T00121115  RH  039%=      5-min Rain = 0
KLD1 111830Z 33009KT 01/M12 A302 RMK A01 T00091115  RH  040%=      5-min Rain = 0
KLD1 111835Z 35009G14KT 01/M11 A3019 RMK A01 T00101113  RH  040%=      5-min Rain = 0
KLD1 111840Z 36007KT 02/M11 A3019 RMK A01 T00151113  RH  039%=      5-min Rain = 0
KLD1 111845Z 00009G14KT 02/M11 A3018 RMK A01 T00161113  RH  038%=      5-min Rain = 0
KLD1 111850Z 36009KT 02/M11 A3018 RMK A01 T00231113  RH  036%=      5-min Rain = 0
KLD1 111855Z 36007KT 02/M12 A3017 RMK A01 T00221115  RH  036%=      5-min Rain = 0
KLD1 111900Z 33005KT 02/M11 A3017 RMK A01 T00191114  RH  037%=      5-min Rain = 0
KLD1 111905Z 33004KT 03/M11 A3017 RMK A01 T00251112  RH  036%=      5-min Rain = 0
KLD1 111910Z 33006KT 03/M11 A3017 RMK A01 T00291112  RH  035%=      5-min Rain = 0
KLD1 111915Z 35006G12KT 03/M11 A3017 RMK A01 T00341113  RH  034%=      5-min Rain = 0
KLD1 111920Z 36007G12KT 04/M11 A3016 RMK A01 T00351114  RH  033%=      5-min Rain = 0
KLD1 111925Z 01007G12KT 04/M12 A3016 RMK A01 T00351115  RH  033%=      5-min Rain = 0
KLD1 111930Z 02004KT 04/M11 A3016 RMK A01 T00391114  RH  032%=      5-min Rain = 0
KLD1 111935Z 00008G13KT 04/M12 A3015 RMK A01 T00381115  RH  032%=      5-min Rain = 0
KLD1 111940Z 35005KT 04/M11 A3015 RMK A01 T00411114  RH  032%=      5-min Rain = 0
KLD1 111945Z 00005G11KT 04/M11 A3015 RMK A01 T00431114  RH  031%=      5-min Rain = 0
KLD1 111950Z 02008KT 04/M12 A3014 RMK A01 T00441115  RH  031%=      5-min Rain = 0
KLD1 111955Z 03008KT 04/M12 A3014 RMK A01 T00441116  RH  031%=      5-min Rain = 0
KLD1 112000Z 04007KT 05/M12 A3014 RMK A01 T00481115  RH  030%=      5-min Rain = 0
KLD1 112005Z 05005KT 04/M12 A3014 RMK A01 T00441116  RH  031%=      5-min Rain = 0
KLD1 112010Z 03005G12KT 05/M12 A3013 RMK A01 T00461115  RH  031%=      5-min Rain = 0
KLD1 112015Z 34005G10KT 05/M12 A3013 RMK A01 T00511116  RH  029%=      5-min Rain = 0
KLD1 112020Z 03004KT 05/M12 A3013 RMK A01 T00501116  RH  029%=      5-min Rain = 0
KLD1 112025Z 02002G7KT 05/M11 A3013 RMK A01 T00511114  RH  030%=      5-min Rain = 0
KLD1 112030Z 01006KT 06/M12 A3013 RMK A01 T00551117  RH  028%=      5-min Rain = 0
KLD1 112035Z 00006KT 06/M12 A3013 RMK A01 T00571116  RH  028%=      5-min Rain = 0
KLD1 112040Z 05004KT 06/M12 A3012 RMK A01 T00561117  RH  028%=      5-min Rain = 0
KLD1 112045Z 11002KT 06/M12 A3012 RMK A01 T00561117  RH  028%=      5-min Rain = 0
KLD1 112050Z 09001KT 06/M12 A3012 RMK A01 T00571117  RH  028%=      5-min Rain = 0
KLD1 112055Z 07003KT 06/M12 A3012 RMK A01 T00561121  RH  027%=      5-min Rain = 0
KLD1 112100Z 03005KT 06/M12 A3012 RMK A01 T00591123  RH  026%=      5-min Rain = 0
KLD1 112105Z 05007KT 06/M12 A3012 RMK A01 T00591123  RH  026%=      5-min Rain = 0
KLD1 112110Z 05006KT 06/M12 A3012 RMK A01 T00591123  RH  026%=      5-min Rain = 0
KLD1 112115Z 01002KT 06/M12 A3012 RMK A01 T00601121  RH  026%=      5-min Rain = 0
KLD1 112120Z 34005KT 06/M12 A3012 RMK A01 T00601121  RH  026%=      5-min Rain = 0
KLD1 112125Z 05005KT 06/M12 A3012 RMK A01 T00631121  RH  026%=      5-min Rain = 0
KLD1 112130Z 10004KT 06/M12 A3012 RMK A01 T00621122  RH  026%=      5-min Rain = 0
KLD1 112135Z 07004KT 06/M12 A3012 RMK A01 T00621120  RH  026%=      5-min Rain = 0
KLD1 112140Z 09003KT 06/M12 A3012 RMK A01 T00631120  RH  026%=      5-min Rain = 0
KLD1 112145Z 10001KT 07/M12 A3012 RMK A01 T00651118  RH  026%=      5-min Rain = 0
KLD1 112150Z 08004G9KT 07/M12 A3012 RMK A01 T00671120  RH  025%=      5-min Rain = 0
KLD1 112155Z 17002KT 06/M12 A3012 RMK A01 T00641120  RH  026%=      5-min Rain = 0
KLD1 112200Z 10003KT 06/M12 A3012 RMK A01 T00621120  RH  026%=      5-min Rain = 0
KLD1 112205Z 09003KT 07/M12 A3012 RMK A01 T00661120  RH  026%=      5-min Rain = 0
KLD1 112210Z 14003KT 07/M12 A3012 RMK A01 T00681121  RH  025%=      5-min Rain = 0
KLD1 112215Z 07003KT 07/M12 A3012 RMK A01 T00691123  RH  024%=      5-min Rain = 0
KLD1 112220Z 11002KT 07/M12 A3012 RMK A01 T00671124  RH  025%=      5-min Rain = 0
KLD1 112225Z 09003KT 07/M13 A3012 RMK A01 T00651125  RH  024%=      5-min Rain = 0
KLD1 112230Z 10005KT 06/M13 A3012 RMK A01 T00631127  RH  025%=      5-min Rain = 0
KLD1 112235Z 10004KT 06/M13 A3013 RMK A01 T00591127  RH  025%=      5-min Rain = 0
KLD1 112240Z 08003KT 06/M13 A3013 RMK A01 T00581128  RH  025%=      5-min Rain = 0
KLD1 112245Z 10003KT 06/M13 A3013 RMK A01 T00591128  RH  025%=      5-min Rain = 0
KLD1 112250Z 10002KT 06/M13 A3013 RMK A01 T00601128  RH  025%=      5-min Rain = 0
KLD1 112255Z 12004KT 06/M13 A3013 RMK A01 T00621129  RH  024%=      5-min Rain = 0
KLD1 112300Z 15004KT 06/M13 A3013 RMK A01 T00611130  RH  024%=      5-min Rain = 0
KLD1 112305Z 14003KT 06/M13 A3013 RMK A01 T00601130  RH  024%=      5-min Rain = 0
KLD1 112310Z 13002KT 06/M13 A3013 RMK A01 T00591130  RH  025%=      5-min Rain = 0
KLD1 112315Z 13002KT 06/M13 A3014 RMK A01 T00601130  RH  025%=      5-min Rain = 0
KLD1 112320Z 12001KT 06/M13 A3014 RMK A01 T00601129  RH  025%=      5-min Rain = 0
KLD1 112325Z 12001KT 06/M13 A3014 RMK A01 T00621129  RH  024%=      5-min Rain = 0
KLD1 112330Z 08002KT 06/M13 A3014 RMK A01 T00641130  RH  024%=      5-min Rain = 0
KLD1 112335Z 08002KT 06/M13 A3014 RMK A01 T00591130  RH  025%=      5-min Rain = 0
KLD1 112340Z 08001KT 06/M13 A3014 RMK A01 T00581129  RH  025%=      5-min Rain = 0
KLD1 112345Z 12002KT 06/M13 A3014 RMK A01 T00571131  RH  025%=      5-min Rain = 0
KLD1 112350Z 11002KT 05/M13 A3014 RMK A01 T00531132  RH  025%=      5-min Rain = 0
KLD1 112355Z 12003KT 05/M13 A3014 RMK A01 T00511132  RH  026%=      5-min Rain = 0
KLD1 120000Z 12003KT 05/M13 A3014 RMK A01 T00501133  RH  026%=      5-min Rain = 0
KLD1 120005Z 14003KT 05/M14 A3014 RMK A01 T00491135  RH  025%=      5-min Rain = 0
KLD1 120010Z 14004KT 05/M14 A3015 RMK A01 T00461137  RH  026%=      5-min Rain = 0
KLD1 120015Z 15005KT 04/M14 A3015 RMK A01 T00431137  RH  026%=      5-min Rain = 0
KLD1 120020Z 14005KT 04/M14 A3015 RMK A01 T00401139  RH  026%=      5-min Rain = 0
KLD1 120025Z 14005KT 04/M14 A3015 RMK A01 T00381140  RH  026%=      5-min Rain = 0
KLD1 120030Z 13005KT 04/M14 A3015 RMK A01 T00361140  RH  027%=      5-min Rain = 0
KLD1 120035Z 13005KT 03/M14 A3015 RMK A01 T00341141  RH  027%=      5-min Rain = 0
KLD1 120040Z 13005KT 03/M14 A3015 RMK A01 T00321141  RH  027%=      5-min Rain = 0
KLD1 120045Z 14005KT 03/M14 A3015 RMK A01 T00281143  RH  028%=      5-min Rain = 0
KLD1 120050Z 14005KT 02/M14 A3016 RMK A01 T00241144  RH  028%=      5-min Rain = 0
KLD1 120055Z 14005KT 02/M15 A3016 RMK A01 T00211145  RH  028%=      5-min Rain = 0
KLD1 120100Z 13005KT 02/M15 A3016 RMK A01 T00191145  RH  029%=      5-min Rain = 0
KLD1 120105Z 14006KT 02/M15 A3016 RMK A01 T00171145  RH  029%=      5-min Rain = 0
KLD1 120110Z 14005KT 01/M15 A3016 RMK A01 T00141150  RH  029%=      5-min Rain = 0
KLD1 120115Z 13004KT 01/M15 A3016 RMK A01 T00101152  RH  029%=      5-min Rain = 0
KLD1 120120Z 12003KT 01/M15 A3016 RMK A01 T00051153  RH  030%=      5-min Rain = 0
KLD1 120125Z 12004KT 00/16 A3016 RMK A01 T00-00-156  RH  031%=      5-min Rain = 0
KLD1 120130Z 11003KT M00/M15 A3016 RMK A01 T10031154  RH  031%=      5-min Rain = 0
KLD1 120135Z 09002KT M00/M15 A3015 RMK A01 T10021154  RH  031%=      5-min Rain = 0
KLD1 120140Z 07003KT M00/M15 A3015 RMK A01 T10031153  RH  032%=      5-min Rain = 0
KLD1 120145Z 10003KT M00/M15 A3016 RMK A01 T10011154  RH  031%=      5-min Rain = 0
KLD1 120150Z 12003KT M00/M15 A3016 RMK A01 T10041154  RH  032%=      5-min Rain = 0
KLD1 120155Z 11004KT M00/M15 A3016 RMK A01 T10031154  RH  032%=      5-min Rain = 0
KLD1 120200Z 12005KT M00/M15 A3017 RMK A01 T10041152  RH  032%=      5-min Rain = 0
KLD1 120205Z 13005KT M00/M15 A3017 RMK A01 T10031150  RH  033%=      5-min Rain = 0
KLD1 120210Z 13005KT M00/M15 A3017 RMK A01 T10031150  RH  033%=      5-min Rain = 0
KLD1 120215Z 13006KT M01/M16 A3017 RMK A01 T10121161  RH  032%=      5-min Rain = 0
KLD1 120220Z 14005KT M02/M16 A3017 RMK A01 T10181163  RH  033%=      5-min Rain = 0
KLD1 120225Z 14006KT M02/M15 A3017 RMK A01 T10171154  RH  035%=      5-min Rain = 0
KLD1 120230Z 15006KT M01/M15 A3018 RMK A01 T10131152  RH  034%=      5-min Rain = 0
KLD1 120235Z 15006KT M02/M16 A3018 RMK A01 T10161157  RH  034%=      5-min Rain = 0
KLD1 120240Z 16007KT M02/M16 A3018 RMK A01 T10211159  RH  034%=      5-min Rain = 0
KLD1 120245Z 15007KT M02/M16 A3018 RMK A01 T10231158  RH  035%=      5-min Rain = 0
KLD1 120250Z 16007KT M02/M16 A3018 RMK A01 T10241158  RH  036%=      5-min Rain = 0
KLD1 120255Z 16007KT M03/M16 A3018 RMK A01 T10261158  RH  036%=      5-min Rain = 0
KLD1 120300Z 16007KT M03/M16 A3018 RMK A01 T10261159  RH  036%=      5-min Rain = 0
KLD1 120305Z 16007KT M03/M16 A3019 RMK A01 T10261159  RH  036%=      5-min Rain = 0
KLD1 120310Z 16006KT M03/M16 A3019 RMK A01 T10271160  RH  036%=      5-min Rain = 0
KLD1 120315Z 17007KT M03/M16 A3019 RMK A01 T10271158  RH  036%=      5-min Rain = 0
KLD1 120320Z 16007KT M03/M16 A3019 RMK A01 T10281159  RH  036%=      5-min Rain = 0
KLD1 120325Z 16007KT M03/M16 A3019 RMK A01 T10291158  RH  037%=      5-min Rain = 0
KLD1 120330Z 16006KT M03/M16 A3019 RMK A01 T10311158  RH  037%=      5-min Rain = 0
KLD1 120335Z 16006KT M03/M16 A3019 RMK A01 T10341159  RH  038%=      5-min Rain = 0
KLD1 120340Z 16007KT M03/M16 A3019 RMK A01 T10321155  RH  039%=      5-min Rain = 0
KLD1 120345Z 16007KT M03/M15 A3019 RMK A01 T10291154  RH  038%=      5-min Rain = 0
KLD1 120350Z 17006KT M03/M16 A3019 RMK A01 T10301156  RH  038%=      5-min Rain = 0
KLD1 120355Z 16005KT M03/M16 A3019 RMK A01 T10321157  RH  038%=      5-min Rain = 0
KLD1 120400Z 17005KT M04/M16 A302 RMK A01 T10351159  RH  038%=      5-min Rain = 0
KLD1 120405Z 16006KT M04/M16 A302 RMK A01 T10371157  RH  039%=      5-min Rain = 0
KLD1 120410Z 16007KT M04/M15 A302 RMK A01 T10361153  RH  040%=      5-min Rain = 0
KLD1 120415Z 16005KT M04/M16 A302 RMK A01 T10371159  RH  039%=      5-min Rain = 0
KLD1 120420Z 15005KT M04/M16 A302 RMK A01 T10411162  RH  039%=      5-min Rain = 0
KLD1 120425Z 15005KT M04/M16 A302 RMK A01 T10421162  RH  040%=      5-min Rain = 0
KLD1 120430Z 15005KT M04/M16 A302 RMK A01 T10441163  RH  040%=      5-min Rain = 0
KLD1 120435Z 15007KT M04/M16 A302 RMK A01 T10421156  RH  041%=      5-min Rain = 0
KLD1 120440Z 15006KT M04/M15 A302 RMK A01 T10391153  RH  041%=      5-min Rain = 0
KLD1 120445Z 15005KT M04/M15 A302 RMK A01 T10381152  RH  041%=      5-min Rain = 0
KLD1 120450Z 16006KT M04/M15 A302 RMK A01 T10381153  RH  041%=      5-min Rain = 0
KLD1 120455Z 16006KT M04/M16 A302 RMK A01 T10401155  RH  041%=      5-min Rain = 0
KLD1 120500Z 16007KT M04/M15 A302 RMK A01 T10411154  RH  042%=      5-min Rain = 0
KLD1 120505Z 16006KT M04/M15 A302 RMK A01 T10411154  RH  042%=      5-min Rain = 0
KLD1 120510Z 17006KT M04/M15 A302 RMK A01 T10411154  RH  042%=      5-min Rain = 0
KLD1 120515Z 17006KT M04/M15 A302 RMK A01 T10421154  RH  042%=      5-min Rain = 0
KLD1 120520Z 17006KT M04/M16 A302 RMK A01 T10441155  RH  042%=      5-min Rain = 0
KLD1 120525Z 16004KT M05/M16 A302 RMK A01 T10461157  RH  042%=      5-min Rain = 0
KLD1 120530Z 16003KT M05/M16 A302 RMK A01 T10511163  RH  042%=      5-min Rain = 0
KLD1 120535Z 17003KT M05/M16 A302 RMK A01 T10521160  RH  043%=      5-min Rain = 0
KLD1 120540Z 17004KT M05/M16 A302 RMK A01 T10521158  RH  044%=      5-min Rain = 0
KLD1 120545Z 17004KT M05/M16 A302 RMK A01 T10521156  RH  045%=      5-min Rain = 0
KLD1 120550Z 17004KT M05/M16 A302 RMK A01 T10521156  RH  044%=      5-min Rain = 0
KLD1 120555Z 16004KT M05/M16 A302 RMK A01 T10531160  RH  043%=      5-min Rain = 0

Page generated in 0.0092 seconds.